Terminal Aerodrome Forecast
Issued by NWS

Home | Current Version | Previous Version | Graphics & Text | Print | Product List | Glossary On
Versions: 1 2 3 4 5 6 7 8 9 10 11 12 13 14 15 16 17 18 19 20 21
000
FTUS42 KMHX 010200 AAB
TAFPGV
TAF AMD
KPGV 010245Z 0103/0124 00000KT 4SM BR SCT005
      TEMPO 0103/0105 1SM BR VV007
     FM011300 03005KT P6SM SCT025
     FM011800 03005KT P6SM SCT250
      AMD LTD TO CLD VIS AND WIND=

USA.gov is the U.S. government's official web portal to all federal, state and local government web resources and services.